Terminal Aerodrome Forecast
Issued by NWS

Home | Current Version | Previous Version | Text Only | Print | Product List | Glossary On
Versions: 1 2 3 4 5 6 7 8 9 10 11 12 13 14 15 16 17
875
FTUS43 KMPX 120525
TAFRNH
TAF
KRNH 120525Z 1206/1306 31009KT P6SM SKC
     FM121600 30005KT P6SM BKN100
     FM121800 25005KT P6SM BKN050 OVC090
     FM122300 18004KT P6SM BKN025 OVC050=

USA.gov is the U.S. government's official web portal to all federal, state and local government web resources and services.